Time;durP1;ratioP1;P1;durP2;ratioP2;P2;SDS_P1;SDS_P2;PMS_P1;PMS_P2;Temp;Humidity;BMP_temperature;BMP_pressure;BME280_temperature;BME280_humidity;BME280_pressure;Samples;Min_cycle;Max_cycle;Signal;HPM_P1;HPM_P2
2021/03/17 00:01:07;;;;;;;3.08;2.60;;;4.80;98.70;;;;;;5070338;28;20208;-84
2021/03/17 00:03:34;;;;;;;4.45;2.60;;;4.80;98.70;;;;;;5068500;28;20226;-83
2021/03/17 00:06:01;;;;;;;2.85;2.65;;;4.70;98.90;;;;;;5067912;28;20235;-83
2021/03/17 00:08:28;;;;;;;3.90;3.05;;;4.60;98.70;;;;;;5069639;28;20269;-83
2021/03/17 00:10:55;;;;;;;3.60;3.08;;;4.50;99.40;;;;;;5069343;28;20553;-80
2021/03/17 00:13:24;;;;;;;3.72;3.08;;;4.50;99.40;;;;;;5068658;28;20257;-80
2021/03/17 00:15:52;;;;;;;3.05;2.80;;;4.50;99.50;;;;;;5069037;28;20220;-80
2021/03/17 00:18:18;;;;;;;3.50;3.20;;;4.60;99.60;;;;;;5070314;28;20207;-83
2021/03/17 00:20:45;;;;;;;3.42;2.80;;;4.60;99.00;;;;;;5069495;28;20241;-81
2021/03/17 00:23:11;;;;;;;3.40;3.05;;;4.80;99.10;;;;;;5069422;28;20288;-81
2021/03/17 00:25:39;;;;;;;3.28;2.90;;;4.80;98.90;;;;;;5068483;28;20203;-80
2021/03/17 00:28:06;;;;;;;3.15;2.90;;;4.80;98.90;;;;;;5069739;28;20212;-81
2021/03/17 00:30:36;;;;;;;6.05;5.45;;;4.50;98.90;;;;;;5069100;28;20222;-81
2021/03/17 00:33:03;;;;;;;6.32;5.72;;;4.50;99.00;;;;;;5069128;28;20241;-81
2021/03/17 00:35:30;;;;;;;5.15;4.65;;;4.50;99.30;;;;;;5068876;28;20688;-81
2021/03/17 00:37:57;;;;;;;3.53;3.20;;;4.50;99.60;;;;;;5068784;28;20535;-82
2021/03/17 00:40:24;;;;;;;2.80;2.60;;;4.50;99.80;;;;;;5068834;28;20684;-80
2021/03/17 00:43:00;;;;;;;2.88;2.67;;;4.40;99.90;;;;;;5068727;28;20203;-81
2021/03/17 00:45:27;;;;;;;3.33;2.92;;;4.40;99.60;;;;;;5068614;28;20312;-80
2021/03/17 00:47:55;;;;;;;3.47;2.97;;;4.30;99.80;;;;;;5069707;28;20199;-81
2021/03/17 00:50:22;;;;;;;4.60;3.85;;;4.20;99.70;;;;;;5068979;28;20268;-81
2021/03/17 00:52:49;;;;;;;3.45;2.80;;;4.20;99.90;;;;;;5068896;28;20210;-81
2021/03/17 00:55:16;;;;;;;3.33;3.03;;;4.30;99.90;;;;;;5069269;28;20207;-81
2021/03/17 00:57:42;;;;;;;2.70;2.50;;;4.20;99.90;;;;;;5069069;28;20581;-81
2021/03/17 01:00:11;;;;;;;3.33;2.97;;;4.20;99.90;;;;;;5069744;28;20206;-82
2021/03/17 01:02:38;;;;;;;3.25;2.58;;;4.10;99.90;;;;;;5067768;28;20587;-82
2021/03/17 01:05:34;;;;;;;3.83;3.10;;;4.00;99.90;;;;;;5068911;28;20339;-82
2021/03/17 01:08:00;;;;;;;3.00;2.50;;;3.80;99.90;;;;;;5070053;28;20230;-82
2021/03/17 01:10:33;;;;;;;3.58;2.58;;;3.90;99.90;;;;;;5072873;28;20562;-82
2021/03/17 01:12:59;;;;;;;3.28;3.00;;;3.90;99.90;;;;;;5073260;28;20207;-81
2021/03/17 01:15:26;;;;;;;3.50;3.00;;;4.00;99.90;;;;;;5072310;28;20534;-82
2021/03/17 01:17:53;;;;;;;3.40;3.10;;;4.00;99.90;;;;;;5072320;28;20234;-82
2021/03/17 01:20:22;;;;;;;4.75;4.05;;;3.90;99.90;;;;;;5072803;28;20207;-82
2021/03/17 01:22:50;;;;;;;5.05;4.55;;;3.90;99.90;;;;;;5072160;28;20227;-81
2021/03/17 01:25:23;;;;;;;3.33;3.00;;;3.90;99.90;;;;;;5072918;28;20223;-82
2021/03/17 01:27:49;;;;;;;5.68;4.78;;;3.80;99.90;;;;;;5073338;28;20290;-81
2021/03/17 01:30:18;;;;;;;5.15;4.40;;;3.80;99.90;;;;;;5072972;28;20580;-81
2021/03/17 01:32:45;;;;;;;3.92;3.63;;;3.90;99.90;;;;;;5072303;28;20678;-82
2021/03/17 01:35:13;;;;;;;3.97;3.55;;;4.00;99.90;;;;;;5070663;28;20250;-82
2021/03/17 01:37:40;;;;;;;3.88;3.58;;;4.00;99.90;;;;;;5073018;28;20199;-82
2021/03/17 01:40:10;;;;;;;4.38;3.97;;;4.00;99.90;;;;;;5072795;28;20311;-82
2021/03/17 01:42:36;;;;;;;3.95;3.58;;;4.10;99.90;;;;;;5072220;28;20278;-81
2021/03/17 01:45:05;;;;;;;3.25;3.03;;;4.20;99.90;;;;;;5072792;28;20318;-82
2021/03/17 01:47:31;;;;;;;5.28;3.13;;;4.20;99.90;;;;;;5073243;28;20283;-82
2021/03/17 01:49:58;;;;;;;4.85;3.25;;;4.00;99.90;;;;;;5072712;28;20282;-81
2021/03/17 01:52:25;;;;;;;3.67;3.38;;;4.10;99.90;;;;;;5072068;28;20731;-81
2021/03/17 01:54:52;;;;;;;4.63;3.75;;;4.10;99.90;;;;;;5072203;28;20567;-82
2021/03/17 01:57:19;;;;;;;4.43;3.50;;;4.20;99.90;;;;;;5072960;28;21004;-82
2021/03/17 01:59:45;;;;;;;4.43;3.75;;;4.20;99.90;;;;;;5072709;28;20211;-82
2021/03/17 02:02:17;;;;;;;4.43;4.03;;;4.30;99.90;;;;;;5085307;28;20195;-82
2021/03/17 02:04:45;;;;;;;4.88;3.95;;;4.30;99.90;;;;;;5093430;28;20233;-83
2021/03/17 02:07:17;;;;;;;4.00;3.05;;;4.30;99.90;;;;;;5092072;28;20811;-82
2021/03/17 02:09:45;;;;;;;3.58;3.00;;;4.20;99.90;;;;;;5073054;28;20199;-82
2021/03/17 02:12:26;;;;;;;3.55;3.25;;;4.20;99.90;;;;;;5072258;28;20195;-83
2021/03/17 02:15:08;;;;;;;3.78;3.47;;;4.30;99.90;;;;;;5056660;28;20198;-81
2021/03/17 02:17:39;;;;;;;3.80;3.47;;;4.20;99.90;;;;;;5072434;28;20191;-82
2021/03/17 02:20:29;;;;;;;5.15;4.13;;;4.00;99.90;;;;;;5070961;28;20188;-82
2021/03/17 02:23:08;;;;;;;3.47;2.92;;;4.10;99.90;;;;;;5071667;28;20204;-82
2021/03/17 02:26:13;;;;;;;5.00;3.95;;;4.10;99.90;;;;;;5072053;28;20195;-82
2021/03/17 02:28:58;;;;;;;3.33;3.03;;;4.00;99.90;;;;;;5072206;28;20207;-81
2021/03/17 02:31:49;;;;;;;4.25;3.40;;;3.90;99.90;;;;;;5052177;28;20207;-82
2021/03/17 02:34:23;;;;;;;4.72;4.22;;;3.90;99.90;;;;;;5066012;28;20272;-82
2021/03/17 02:36:57;;;;;;;4.70;3.30;;;4.00;99.90;;;;;;5071760;28;20196;-81
2021/03/17 02:39:28;;;;;;;3.55;3.15;;;4.10;99.90;;;;;;5072353;28;20230;-81
2021/03/17 02:42:01;;;;;;;5.55;3.65;;;3.80;99.90;;;;;;5071545;28;20244;-82
2021/03/17 02:44:29;;;;;;;5.40;3.80;;;3.70;99.90;;;;;;5069982;28;20306;-81
2021/03/17 02:46:59;;;;;;;4.22;3.80;;;3.80;99.90;;;;;;5068339;28;20592;-82
2021/03/17 02:49:34;;;;;;;3.58;2.75;;;4.00;99.90;;;;;;5065831;28;20232;-81
2021/03/17 02:52:02;;;;;;;4.03;3.65;;;4.00;99.90;;;;;;5070074;28;20214;-82
2021/03/17 02:54:30;;;;;;;4.25;3.85;;;3.80;99.90;;;;;;5069614;28;20226;-81
2021/03/17 02:57:07;;;;;;;3.95;3.47;;;3.90;99.90;;;;;;5072010;28;20195;-81
2021/03/17 02:59:37;;;;;;;4.13;3.70;;;3.70;99.90;;;;;;5071604;28;20690;-82
2021/03/17 03:02:05;;;;;;;4.40;3.72;;;3.80;99.90;;;;;;5071718;28;20191;-81
2021/03/17 03:04:36;;;;;;;4.10;3.53;;;3.70;99.90;;;;;;5070711;28;20597;-81
2021/03/17 03:07:05;;;;;;;5.82;4.03;;;3.50;99.90;;;;;;5054679;28;20198;-81
2021/03/17 03:09:35;;;;;;;4.80;4.05;;;3.50;99.90;;;;;;5071372;28;20222;-81
2021/03/17 03:12:02;;;;;;;4.60;3.42;;;3.40;99.90;;;;;;5070895;28;20195;-81
2021/03/17 03:14:30;;;;;;;4.88;3.45;;;3.40;99.90;;;;;;5070240;28;20199;-82
2021/03/17 03:16:59;;;;;;;4.35;3.75;;;3.30;99.90;;;;;;5070597;28;20253;-82
2021/03/17 03:19:29;;;;;;;5.13;3.75;;;3.30;99.90;;;;;;5070220;28;20207;-81
2021/03/17 03:21:58;;;;;;;5.28;4.35;;;3.40;99.90;;;;;;5071078;28;20188;-82
2021/03/17 03:24:25;;;;;;;4.75;4.25;;;3.50;99.90;;;;;;5069401;28;20676;-82
2021/03/17 03:26:53;;;;;;;4.20;3.80;;;3.50;99.90;;;;;;5070691;28;20265;-82
2021/03/17 03:29:20;;;;;;;4.47;3.80;;;3.40;99.90;;;;;;5070977;28;20195;-81
2021/03/17 03:31:47;;;;;;;4.65;3.95;;;3.50;99.90;;;;;;5070572;28;20223;-82
2021/03/17 03:34:15;;;;;;;4.88;4.38;;;3.50;99.90;;;;;;5068239;28;20202;-81
2021/03/17 03:36:42;;;;;;;5.13;3.60;;;3.70;99.90;;;;;;5070718;28;20664;-82
2021/03/17 03:39:10;;;;;;;5.60;4.35;;;3.70;99.90;;;;;;5070702;28;20203;-82
2021/03/17 03:41:36;;;;;;;4.03;3.63;;;3.60;99.90;;;;;;5069523;28;20257;-81
2021/03/17 03:44:06;;;;;;;4.75;4.07;;;3.60;99.90;;;;;;5069422;28;20560;-81
2021/03/17 03:46:33;;;;;;;5.25;4.30;;;3.80;99.90;;;;;;5068927;28;20214;-81
2021/03/17 03:49:01;;;;;;;5.68;4.80;;;3.80;99.90;;;;;;5051132;28;20231;-81
2021/03/17 03:51:28;;;;;;;5.13;4.18;;;3.80;99.90;;;;;;5069213;28;20211;-81
2021/03/17 03:54:09;;;;;;;4.82;4.18;;;3.60;99.90;;;;;;5068664;28;20234;-81
2021/03/17 03:56:41;;;;;;;5.20;4.70;;;3.60;99.90;;;;;;5070196;28;20264;-81
2021/03/17 03:59:12;;;;;;;4.60;4.20;;;3.50;99.90;;;;;;5070518;28;20249;-81
2021/03/17 04:01:43;;;;;;;5.32;4.50;;;3.50;99.90;;;;;;5070346;28;20561;-82
2021/03/17 04:04:12;;;;;;;6.85;5.10;;;3.30;99.90;;;;;;5069677;28;20223;-81
2021/03/17 04:06:54;;;;;;;4.72;4.20;;;3.40;99.90;;;;;;5070737;28;20200;-82
2021/03/17 04:09:26;;;;;;;4.53;4.13;;;3.70;99.90;;;;;;5075170;28;20195;-81
2021/03/17 04:11:56;;;;;;;6.82;5.40;;;3.70;99.90;;;;;;5069289;28;20282;-82
2021/03/17 04:14:25;;;;;;;6.38;4.63;;;3.90;99.90;;;;;;5076661;28;20287;-82
2021/03/17 04:16:54;;;;;;;6.05;4.80;;;3.90;99.90;;;;;;5076586;28;20207;-81
2021/03/17 04:19:23;;;;;;;9.02;5.20;;;3.80;99.90;;;;;;5075396;28;20218;-82
2021/03/17 04:21:56;;;;;;;7.53;5.78;;;3.90;99.90;;;;;;5075967;28;20207;-82
2021/03/17 04:24:24;;;;;;;5.80;4.85;;;3.90;99.90;;;;;;5067044;28;20203;-81
2021/03/17 04:26:56;;;;;;;6.03;4.68;;;4.00;99.90;;;;;;5076296;28;20203;-81
2021/03/17 04:29:30;;;;;;;6.55;4.25;;;3.90;99.90;;;;;;5076300;28;20213;-82
2021/03/17 04:32:03;;;;;;;5.55;4.93;;;3.90;99.90;;;;;;5078243;28;20203;-82
2021/03/17 04:34:33;;;;;;;5.72;5.07;;;3.70;99.90;;;;;;5077666;28;20191;-82
2021/03/17 04:37:02;;;;;;;7.25;6.03;;;3.60;99.90;;;;;;5078088;28;20195;-82
2021/03/17 04:39:32;;;;;;;6.15;5.40;;;3.50;99.90;;;;;;5077600;28;20196;-82
2021/03/17 04:42:00;;;;;;;7.07;5.55;;;3.60;99.90;;;;;;5075461;28;20233;-82
2021/03/17 04:44:33;;;;;;;10.50;8.40;;;3.60;99.90;;;;;;5074446;28;20306;-82
2021/03/17 04:47:01;;;;;;;6.90;5.97;;;3.70;99.90;;;;;;5074433;28;20209;-82
2021/03/17 04:49:29;;;;;;;8.45;6.07;;;3.80;99.90;;;;;;5070791;28;20256;-82
2021/03/17 04:52:00;;;;;;;9.48;6.90;;;3.80;99.90;;;;;;5074591;28;20242;-82
2021/03/17 04:54:33;;;;;;;12.77;9.57;;;4.00;99.90;;;;;;5071826;28;20200;-82
2021/03/17 04:57:01;;;;;;;8.35;7.45;;;3.90;99.90;;;;;;5073757;28;20317;-82
2021/03/17 04:59:33;;;;;;;8.93;7.10;;;3.70;99.90;;;;;;5070315;28;20222;-82
2021/03/17 05:02:04;;;;;;;8.82;7.00;;;3.90;99.90;;;;;;5077640;28;20200;-81
2021/03/17 05:04:38;;;;;;;11.15;8.63;;;3.90;99.90;;;;;;5078670;28;20215;-82
2021/03/17 05:07:07;;;;;;;15.93;11.68;;;4.00;99.90;;;;;;5072212;28;20211;-81
2021/03/17 05:09:35;;;;;;;9.90;7.07;;;3.60;99.90;;;;;;5069426;28;20299;-81
2021/03/17 05:12:03;;;;;;;8.38;7.45;;;3.40;99.90;;;;;;5069429;28;20737;-82
2021/03/17 05:14:31;;;;;;;8.10;7.30;;;3.50;99.90;;;;;;5049845;28;20207;-82
2021/03/17 05:16:59;;;;;;;10.93;9.38;;;3.80;99.90;;;;;;5069511;28;20223;-82
2021/03/17 05:19:25;;;;;;;11.93;9.50;;;3.90;99.90;;;;;;5069105;28;20608;-82
2021/03/17 05:21:52;;;;;;;10.77;8.75;;;3.80;99.90;;;;;;5049758;28;20600;-82
2021/03/17 05:24:18;;;;;;;9.90;8.43;;;3.90;99.90;;;;;;5066921;28;20261;-82
2021/03/17 05:26:46;;;;;;;9.30;8.07;;;3.70;99.90;;;;;;5069136;28;20286;-82
2021/03/17 05:29:15;;;;;;;9.82;8.32;;;3.80;99.90;;;;;;5070142;28;20214;-82
2021/03/17 05:31:42;;;;;;;9.10;8.13;;;3.80;99.90;;;;;;5068294;28;20210;-82
2021/03/17 05:34:09;;;;;;;9.90;8.65;;;3.60;99.90;;;;;;5068768;28;20285;-83
2021/03/17 05:36:35;;;;;;;11.52;8.63;;;3.50;99.90;;;;;;5069245;28;20282;-82
2021/03/17 05:39:02;;;;;;;12.43;10.13;;;3.70;99.90;;;;;;5067383;28;20305;-83
2021/03/17 05:41:29;;;;;;;11.32;9.57;;;3.90;99.90;;;;;;5068856;28;20255;-82
2021/03/17 05:43:58;;;;;;;12.40;9.68;;;3.50;99.90;;;;;;5068250;28;20285;-82
2021/03/17 05:46:27;;;;;;;13.57;9.68;;;3.60;99.90;;;;;;5068861;28;20257;-83
2021/03/17 05:48:55;;;;;;;12.50;10.10;;;3.50;99.90;;;;;;5069494;28;20205;-83
2021/03/17 05:51:21;;;;;;;14.38;11.15;;;3.50;99.90;;;;;;5069189;28;20210;-83
2021/03/17 05:53:48;;;;;;;13.77;11.45;;;3.40;99.90;;;;;;5068574;28;20222;-83
2021/03/17 05:56:15;;;;;;;15.13;10.60;;;3.50;99.90;;;;;;5071581;28;20310;-83
2021/03/17 05:58:43;;;;;;;13.30;10.15;;;3.60;99.90;;;;;;5074930;28;20207;-83
2021/03/17 06:01:10;;;;;;;16.67;10.90;;;3.90;99.90;;;;;;5073037;28;20211;-82
2021/03/17 06:03:37;;;;;;;19.38;12.57;;;3.90;99.90;;;;;;5075767;28;20247;-82
2021/03/17 06:06:05;;;;;;;16.42;11.30;;;3.70;99.90;;;;;;5072612;28;20206;-82
2021/03/17 06:08:37;;;;;;;14.77;11.43;;;3.60;99.90;;;;;;5073977;28;20202;-81
2021/03/17 06:11:07;;;;;;;18.98;12.65;;;3.20;99.90;;;;;;5073807;28;20307;-82
2021/03/17 06:13:34;;;;;;;14.60;11.07;;;3.40;99.90;;;;;;5075697;28;20211;-82
2021/03/17 06:16:03;;;;;;;15.93;12.25;;;3.50;99.90;;;;;;5072856;28;20398;-81
2021/03/17 06:18:36;;;;;;;15.25;11.85;;;3.50;99.90;;;;;;5072827;28;20251;-82
2021/03/17 06:21:03;;;;;;;16.70;12.90;;;3.80;99.90;;;;;;5073741;28;20620;-81
2021/03/17 06:23:30;;;;;;;16.70;13.52;;;3.70;99.90;;;;;;5071267;28;20278;-83
2021/03/17 06:25:58;;;;;;;18.17;12.23;;;3.80;99.90;;;;;;5071696;28;20203;-82
2021/03/17 06:28:25;;;;;;;17.63;12.95;;;4.00;99.90;;;;;;5067513;28;20287;-82
2021/03/17 06:30:53;;;;;;;16.52;12.30;;;3.70;99.90;;;;;;5071940;28;20222;-82
2021/03/17 06:33:20;;;;;;;16.30;11.93;;;3.60;99.90;;;;;;5070722;28;20203;-82
2021/03/17 06:35:47;;;;;;;17.67;13.10;;;3.80;99.90;;;;;;5072211;28;20254;-82
2021/03/17 06:38:21;;;;;;;15.07;12.48;;;3.70;99.90;;;;;;5070841;28;20195;-82
2021/03/17 06:40:57;;;;;;;16.48;12.05;;;3.70;99.90;;;;;;5072085;28;20211;-82
2021/03/17 06:43:35;;;;;;;17.92;13.93;;;3.50;99.90;;;;;;5071315;28;20235;-82
2021/03/17 06:46:03;;;;;;;16.23;12.23;;;3.60;99.90;;;;;;5071582;28;20281;-83
2021/03/17 06:48:32;;;;;;;19.40;12.70;;;3.70;99.90;;;;;;5071935;28;20211;-82
2021/03/17 06:51:08;;;;;;;17.55;13.27;;;3.70;99.90;;;;;;5071646;28;20206;-82
2021/03/17 06:53:42;;;;;;;17.00;12.98;;;3.40;99.90;;;;;;5070787;28;20203;-83
2021/03/17 06:56:20;;;;;;;19.63;14.27;;;3.30;99.90;;;;;;5071271;28;20204;-82
2021/03/17 06:58:49;;;;;;;17.75;12.95;;;3.50;99.90;;;;;;5059416;28;20188;-82
2021/03/17 07:01:31;;;;;;;17.70;13.15;;;3.60;99.90;;;;;;5051380;28;20303;-82
2021/03/17 07:03:59;;;;;;;17.52;12.43;;;3.50;99.90;;;;;;5052125;28;20239;-82
2021/03/17 07:06:27;;;;;;;18.38;12.13;;;3.70;99.90;;;;;;5071257;28;20242;-82
2021/03/17 07:08:54;;;;;;;22.63;15.15;;;3.60;99.90;;;;;;5071491;28;20196;-82
2021/03/17 07:11:25;;;;;;;17.83;12.80;;;3.90;99.90;;;;;;5071480;28;20261;-83
2021/03/17 07:13:57;;;;;;;14.43;10.98;;;4.00;99.90;;;;;;5070655;28;20215;-82
2021/03/17 07:16:37;;;;;;;13.52;11.35;;;3.60;99.90;;;;;;5071537;28;20207;-82
2021/03/17 07:19:05;;;;;;;14.20;11.20;;;3.50;99.90;;;;;;5070828;28;20203;-82
2021/03/17 07:21:37;;;;;;;16.88;12.40;;;3.50;99.90;;;;;;5072091;28;20215;-82
2021/03/17 07:24:06;;;;;;;15.60;11.98;;;3.60;99.90;;;;;;5069721;28;20210;-82
2021/03/17 07:26:34;;;;;;;16.30;12.07;;;3.80;99.90;;;;;;5070979;28;20363;-82
2021/03/17 07:29:07;;;;;;;16.95;11.45;;;4.00;99.90;;;;;;5071256;28;20226;-82
2021/03/17 07:31:35;;;;;;;16.70;12.70;;;4.00;99.90;;;;;;5070919;28;20222;-82
2021/03/17 07:34:24;;;;;;;17.85;11.13;;;4.20;99.90;;;;;;5067766;28;20599;-82
2021/03/17 07:36:55;;;;;;;18.88;11.93;;;3.70;99.90;;;;;;5066309;28;20211;-82
2021/03/17 07:39:24;;;;;;;13.70;10.48;;;4.00;99.90;;;;;;5069457;28;20211;-82
2021/03/17 07:41:52;;;;;;;13.82;10.40;;;3.90;99.90;;;;;;5070439;28;20657;-82
2021/03/17 07:44:20;;;;;;;17.40;12.65;;;3.70;99.90;;;;;;5070299;28;20683;-82
2021/03/17 07:46:49;;;;;;;15.52;11.75;;;3.90;99.90;;;;;;5070789;28;20221;-82
2021/03/17 07:49:17;;;;;;;13.70;9.75;;;3.90;99.90;;;;;;5070516;28;20227;-83
2021/03/17 07:51:49;;;;;;;14.40;10.15;;;4.00;99.90;;;;;;5070803;28;20207;-83
2021/03/17 07:54:20;;;;;;;14.50;10.70;;;4.20;99.90;;;;;;5070311;28;20191;-82
2021/03/17 07:56:49;;;;;;;15.30;10.95;;;4.20;99.90;;;;;;5070587;28;20223;-83
2021/03/17 07:59:18;;;;;;;14.88;10.85;;;4.40;99.90;;;;;;5071174;28;20203;-83
2021/03/17 08:01:45;;;;;;;14.27;10.43;;;4.40;99.90;;;;;;5070451;28;20207;-82
2021/03/17 08:04:12;;;;;;;12.48;10.00;;;4.60;99.90;;;;;;5070100;28;20223;-82
2021/03/17 08:06:38;;;;;;;13.98;9.90;;;4.60;99.90;;;;;;5070323;28;20533;-82
2021/03/17 08:09:05;;;;;;;10.55;9.27;;;4.50;99.90;;;;;;5070267;28;20597;-82
2021/03/17 08:11:33;;;;;;;13.02;10.32;;;4.40;99.90;;;;;;5070641;28;20214;-82
2021/03/17 08:14:00;;;;;;;14.38;10.10;;;4.80;99.90;;;;;;5069484;28;20299;-82
2021/03/17 08:16:28;;;;;;;12.07;9.75;;;4.90;99.90;;;;;;5070088;28;20425;-83
2021/03/17 08:18:55;;;;;;;14.68;9.05;;;4.70;99.90;;;;;;5069694;28;20215;-82
2021/03/17 08:21:48;;;;;;;12.35;8.40;;;4.40;99.60;;;;;;5070191;28;20214;-82
2021/03/17 08:24:43;;;;;;;9.15;7.93;;;4.50;99.90;;;;;;5069457;28;20234;-84
2021/03/17 08:27:26;;;;;;;8.60;6.22;;;4.90;99.90;;;;;;5070280;28;20207;-84
2021/03/17 08:30:15;;;;;;;8.32;6.50;;;5.10;98.30;;;;;;5068049;28;20207;-85
2021/03/17 08:32:55;;;;;;;6.80;5.68;;;5.40;97.40;;;;;;5069807;28;20203;-84
2021/03/17 08:35:22;;;;;;;5.13;4.18;;;5.50;95.20;;;;;;5064376;28;20219;-84
2021/03/17 08:37:52;;;;;;;8.05;5.78;;;5.80;95.40;;;;;;5068553;28;20207;-84
2021/03/17 08:40:44;;;;;;;11.95;5.00;;;5.70;93.70;;;;;;5069648;28;20195;-85
2021/03/17 08:43:41;;;;;;;7.70;5.10;;;5.50;93.80;;;;;;5062018;28;20218;-84
2021/03/17 08:46:09;;;;;;;8.70;5.88;;;5.80;94.00;;;;;;5068739;28;20274;-85
2021/03/17 08:48:58;;;;;;;6.15;5.55;;;5.60;93.20;;;;;;5070157;28;20273;-85
2021/03/17 08:52:04;;;;;;;6.82;5.38;;;5.80;93.30;;;;;;5069436;28;20195;-85
2021/03/17 08:55:01;;;;;;;8.95;5.50;;;5.60;93.30;;;;;;5069130;28;20721;-84
2021/03/17 08:57:50;;;;;;;8.23;6.53;;;5.40;93.60;;;;;;5070027;28;20215;-85
2021/03/17 09:00:42;;;;;;;9.48;6.20;;;5.80;94.40;;;;;;5064850;28;20200;-84
2021/03/17 09:03:09;;;;;;;9.07;6.95;;;6.10;94.20;;;;;;5069328;28;20203;-84
2021/03/17 09:05:35;;;;;;;9.45;6.70;;;6.40;93.30;;;;;;5069726;28;20215;-85
2021/03/17 09:08:06;;;;;;;9.85;7.25;;;6.50;93.20;;;;;;5069921;28;20199;-85
2021/03/17 09:10:40;;;;;;;8.93;6.85;;;6.10;92.00;;;;;;5069525;28;20580;-85
2021/03/17 09:13:07;;;;;;;8.32;6.65;;;6.10;92.70;;;;;;5069310;28;20306;-85
2021/03/17 09:15:47;;;;;;;7.85;6.28;;;6.30;92.70;;;;;;5069929;28;20240;-85
2021/03/17 09:18:14;;;;;;;10.73;6.82;;;5.70;91.40;;;;;;5069717;28;20210;-84
2021/03/17 09:20:44;;;;;;;8.90;6.70;;;5.30;92.20;;;;;;5069332;28;20209;-85
2021/03/17 09:23:16;;;;;;;9.50;6.25;;;5.00;92.10;;;;;;5069013;28;20204;-85
2021/03/17 09:25:47;;;;;;;7.18;5.70;;;4.90;91.80;;;;;;5069268;28;20246;-85
2021/03/17 09:28:20;;;;;;;7.53;6.25;;;4.90;91.70;;;;;;5069973;28;20203;-85
2021/03/17 09:30:51;;;;;;;7.65;5.18;;;5.10;92.10;;;;;;5073670;28;20200;-84
2021/03/17 09:33:20;;;;;;;7.32;5.47;;;5.20;91.60;;;;;;5072557;28;20223;-84
2021/03/17 09:35:49;;;;;;;6.63;5.40;;;5.30;91.40;;;;;;5072996;28;20652;-85
2021/03/17 09:38:19;;;;;;;7.20;4.10;;;6.00;90.70;;;;;;5071942;28;20199;-85
2021/03/17 09:40:49;;;;;;;8.63;4.85;;;6.30;89.50;;;;;;5073058;28;20658;-85
2021/03/17 09:43:24;;;;;;;5.63;4.32;;;7.00;88.10;;;;;;5071576;28;20208;-86
2021/03/17 09:45:52;;;;;;;5.22;3.90;;;7.10;82.40;;;;;;5071559;28;20718;-85
2021/03/17 09:48:18;;;;;;;7.50;5.13;;;7.00;82.90;;;;;;5073072;28;20987;-84
2021/03/17 09:50:45;;;;;;;6.32;4.72;;;6.90;85.20;;;;;;5072769;28;20219;-85
2021/03/17 09:53:15;;;;;;;5.13;4.60;;;6.80;86.00;;;;;;5072941;28;20203;-85
2021/03/17 09:55:43;;;;;;;4.97;4.07;;;7.20;83.50;;;;;;5072324;28;20195;-85
2021/03/17 09:58:10;;;;;;;4.15;3.60;;;7.00;84.00;;;;;;5073231;28;20253;-85
2021/03/17 10:00:37;;;;;;;3.95;3.53;;;6.60;81.30;;;;;;5072345;28;20203;-86
2021/03/17 10:03:12;;;;;;;4.13;3.72;;;6.20;85.20;;;;;;5072644;28;20199;-84
2021/03/17 10:05:38;;;;;;;3.92;3.47;;;6.10;83.20;;;;;;5072556;28;20222;-84
2021/03/17 10:08:05;;;;;;;2.42;2.22;;;6.30;84.90;;;;;;5073013;28;20192;-85
2021/03/17 10:10:32;;;;;;;5.95;3.55;;;6.90;85.60;;;;;;5072374;28;20198;-85
2021/03/17 10:12:59;;;;;;;4.03;3.47;;;6.80;80.60;;;;;;5072357;28;20555;-85
2021/03/17 10:15:26;;;;;;;4.35;3.30;;;6.70;80.00;;;;;;5072538;28;20199;-85
2021/03/17 10:17:57;;;;;;;3.78;3.47;;;6.90;80.10;;;;;;5072701;28;20537;-84
2021/03/17 10:20:27;;;;;;;4.20;3.45;;;6.80;78.60;;;;;;5072733;28;20203;-85
2021/03/17 10:22:59;;;;;;;3.55;2.92;;;6.60;79.30;;;;;;5072037;28;20250;-85
2021/03/17 10:25:28;;;;;;;5.70;4.05;;;6.90;80.60;;;;;;5072301;28;20218;-85
2021/03/17 10:27:59;;;;;;;6.07;4.95;;;6.80;81.10;;;;;;5072172;28;20298;-85
2021/03/17 10:30:29;;;;;;;3.90;3.50;;;7.40;83.90;;;;;;5072516;28;20661;-85
2021/03/17 10:33:00;;;;;;;4.45;3.78;;;7.10;77.50;;;;;;5071938;28;20203;-85
2021/03/17 10:35:29;;;;;;;4.13;3.67;;;7.30;78.60;;;;;;5071797;28;20256;-84
2021/03/17 10:37:57;;;;;;;6.40;3.75;;;7.20;76.90;;;;;;5071882;28;20199;-85
2021/03/17 10:40:25;;;;;;;5.70;4.07;;;7.30;79.30;;;;;;5071853;28;20253;-84
2021/03/17 10:42:55;;;;;;;4.60;3.22;;;7.60;77.00;;;;;;5071591;28;20199;-85
2021/03/17 10:45:24;;;;;;;4.45;3.80;;;7.60;76.70;;;;;;5071024;28;20215;-85
2021/03/17 10:47:51;;;;;;;4.30;3.90;;;8.00;80.10;;;;;;5071689;28;20412;-85
2021/03/17 10:50:27;;;;;;;3.95;3.30;;;8.40;79.30;;;;;;5071771;28;20203;-85
2021/03/17 10:52:55;;;;;;;4.72;3.40;;;7.80;74.60;;;;;;5068822;28;20229;-84
2021/03/17 10:55:24;;;;;;;3.78;3.22;;;7.50;74.40;;;;;;5068164;28;20229;-84
2021/03/17 10:57:52;;;;;;;3.38;3.00;;;7.30;74.90;;;;;;5072241;28;20203;-84
2021/03/17 11:00:22;;;;;;;5.72;3.58;;;7.90;77.00;;;;;;5071637;28;20203;-85
2021/03/17 11:02:49;;;;;;;5.15;2.70;;;8.50;76.80;;;;;;5072040;28;20582;-85
2021/03/17 11:05:17;;;;;;;3.58;3.28;;;9.10;75.50;;;;;;5071116;28;20219;-85
2021/03/17 11:07:56;;;;;;;3.40;3.10;;;9.60;72.50;;;;;;5072179;28;20218;-85
2021/03/17 11:10:34;;;;;;;3.55;3.25;;;9.60;69.70;;;;;;5071508;28;20252;-85
2021/03/17 11:13:22;;;;;;;3.03;2.72;;;8.40;69.20;;;;;;5071146;28;20210;-85
2021/03/17 11:15:50;;;;;;;4.40;3.15;;;8.60;73.40;;;;;;5071190;28;20195;-85
2021/03/17 11:18:20;;;;;;;2.97;2.67;;;8.20;71.40;;;;;;5070980;28;20649;-85
2021/03/17 11:20:47;;;;;;;3.30;2.42;;;7.80;72.20;;;;;;5071435;28;20260;-85
2021/03/17 11:23:18;;;;;;;5.00;3.20;;;7.60;71.60;;;;;;5071396;28;20231;-84
2021/03/17 11:25:45;;;;;;;3.85;3.55;;;7.70;71.50;;;;;;5071133;28;20219;-85
2021/03/17 11:28:17;;;;;;;3.53;2.47;;;7.40;72.20;;;;;;5071331;28;20603;-85
2021/03/17 11:30:46;;;;;;;3.10;2.80;;;7.60;73.40;;;;;;5070871;28;20672;-85
2021/03/17 11:33:28;;;;;;;3.67;3.00;;;7.40;73.30;;;;;;5071819;28;20207;-85
2021/03/17 11:35:57;;;;;;;3.40;3.03;;;7.60;73.70;;;;;;5067902;28;20665;-85
2021/03/17 11:38:25;;;;;;;3.20;2.90;;;7.80;75.00;;;;;;5071252;28;20253;-85
2021/03/17 11:40:53;;;;;;;3.40;2.72;;;7.80;72.20;;;;;;5071024;28;20221;-85
2021/03/17 11:43:25;;;;;;;3.25;2.95;;;7.30;71.90;;;;;;5070808;28;20205;-85
2021/03/17 11:45:52;;;;;;;3.17;2.88;;;6.90;74.10;;;;;;5050925;28;20239;-84
2021/03/17 11:48:20;;;;;;;5.10;3.17;;;7.00;74.60;;;;;;5061304;28;20264;-84
2021/03/17 11:50:48;;;;;;;5.65;3.35;;;6.80;74.80;;;;;;5070008;28;20239;-84
2021/03/17 11:53:19;;;;;;;7.10;4.10;;;6.50;76.50;;;;;;5071183;28;20203;-85
2021/03/17 11:55:47;;;;;;;6.65;3.63;;;6.60;78.30;;;;;;5070137;28;20243;-84
2021/03/17 11:58:14;;;;;;;7.30;4.00;;;6.70;79.40;;;;;;5070611;28;20912;-84
2021/03/17 12:00:41;;;;;;;4.13;3.53;;;6.70;80.10;;;;;;5070582;28;20712;-84
2021/03/17 12:03:08;;;;;;;7.10;4.80;;;6.90;82.00;;;;;;5064914;28;20211;-83
2021/03/17 12:05:34;;;;;;;6.88;5.47;;;6.30;83.20;;;;;;5068501;28;20219;-84
2021/03/17 12:08:01;;;;;;;8.30;5.90;;;5.80;87.70;;;;;;5070363;28;20203;-83
2021/03/17 12:10:29;;;;;;;7.70;6.32;;;5.60;90.40;;;;;;5069340;28;20653;-84
2021/03/17 12:12:57;;;;;;;6.60;5.93;;;5.40;91.80;;;;;;5070213;28;20203;-83
2021/03/17 12:15:26;;;;;;;7.65;6.28;;;5.60;93.00;;;;;;5070518;28;20203;-84
2021/03/17 12:17:53;;;;;;;9.88;7.05;;;5.50;92.80;;;;;;5065185;28;20203;-84
2021/03/17 12:20:27;;;;;;;8.75;6.10;;;5.30;93.00;;;;;;5069775;28;20219;-84
2021/03/17 12:22:54;;;;;;;9.43;6.63;;;5.40;94.10;;;;;;5070060;28;20206;-84
2021/03/17 12:25:21;;;;;;;9.27;6.68;;;4.90;95.30;;;;;;5070457;28;20802;-84
2021/03/17 12:27:48;;;;;;;10.82;7.00;;;4.90;95.60;;;;;;5070049;28;20199;-84
2021/03/17 12:30:18;;;;;;;9.82;7.35;;;4.90;96.90;;;;;;5070198;28;20206;-84
2021/03/17 12:32:46;;;;;;;8.98;6.75;;;5.10;97.20;;;;;;5068432;28;20199;-84
2021/03/17 12:35:14;;;;;;;7.97;6.35;;;5.30;97.10;;;;;;5069579;28;20593;-84
2021/03/17 12:37:43;;;;;;;9.65;6.80;;;5.20;96.20;;;;;;5070032;28;20206;-84
2021/03/17 12:40:12;;;;;;;9.45;7.43;;;5.50;96.40;;;;;;5069816;28;20653;-84
2021/03/17 12:42:38;;;;;;;8.13;6.32;;;5.20;96.30;;;;;;5069729;28;20203;-84
2021/03/17 12:45:07;;;;;;;10.45;7.10;;;5.40;96.70;;;;;;5069807;28;20218;-84
2021/03/17 12:47:35;;;;;;;9.10;7.35;;;5.60;96.30;;;;;;5063478;28;20199;-84
2021/03/17 12:50:01;;;;;;;11.30;8.63;;;5.70;96.40;;;;;;5070071;28;20598;-84
2021/03/17 12:52:28;;;;;;;8.73;7.70;;;5.30;96.40;;;;;;5069163;28;20286;-84
2021/03/17 12:54:54;;;;;;;11.55;7.43;;;4.90;97.10;;;;;;5057254;28;20767;-84
2021/03/17 12:57:20;;;;;;;9.18;7.15;;;5.00;97.50;;;;;;5069866;28;20203;-84
2021/03/17 12:59:47;;;;;;;8.90;6.55;;;4.90;97.30;;;;;;5069885;28;20672;-84
2021/03/17 13:02:13;;;;;;;8.00;6.22;;;4.80;97.60;;;;;;5069427;28;20210;-84
2021/03/17 13:04:41;;;;;;;8.32;7.13;;;5.00;98.00;;;;;;5071963;28;20211;-87
2021/03/17 13:07:07;;;;;;;8.65;7.30;;;5.10;97.90;;;;;;5072684;28;20337;-86
2021/03/17 13:09:34;;;;;;;9.32;7.05;;;5.20;97.90;;;;;;5073997;28;20222;-86